createdAt,value
2023-01-11T00:03:38.758Z,3
2023-01-11T00:09:29.053Z,2.2
2023-01-11T00:15:18.120Z,3.8
2023-01-11T00:21:09.142Z,3.3
2023-01-11T00:26:59.598Z,3.8
2023-01-11T00:32:50.526Z,3.1
2023-01-11T00:38:45.786Z,2.9
2023-01-11T00:44:36.154Z,4.9
2023-01-11T00:50:25.934Z,4.4
2023-01-11T00:56:17.749Z,5.3
2023-01-11T01:02:07.750Z,4.3
2023-01-11T01:07:57.903Z,5.3
2023-01-11T01:13:48.136Z,5.9
2023-01-11T01:19:38.862Z,4.8
2023-01-11T01:25:29.824Z,5.2
2023-01-11T01:31:20.511Z,5.4
2023-01-11T01:37:12.531Z,4.4
2023-01-11T01:43:01.402Z,5
2023-01-11T01:48:52.700Z,6.9
2023-01-11T01:54:43.609Z,6.4
2023-01-11T02:00:34.619Z,5.7
2023-01-11T02:06:25.670Z,5.4
2023-01-11T02:12:15.590Z,5.2
2023-01-11T02:18:06.544Z,4.7
2023-01-11T02:23:59.207Z,7.2
2023-01-11T02:29:49.359Z,5
2023-01-11T02:35:40.855Z,3.6
2023-01-11T02:41:32.049Z,3.1
2023-01-11T02:47:23.349Z,2.5
2023-01-11T02:53:13.731Z,3.2
2023-01-11T02:59:04.062Z,4.3
2023-01-11T03:04:54.820Z,3.3
2023-01-11T03:10:45.313Z,4.4
2023-01-11T03:16:35.879Z,3.7
2023-01-11T03:22:25.019Z,2.7
2023-01-11T03:28:15.515Z,2.6
2023-01-11T03:34:07.124Z,3.1
2023-01-11T03:39:58.431Z,3.4
2023-01-11T03:45:49.121Z,2.7
2023-01-11T03:51:39.641Z,2.6
2023-01-11T03:57:30.621Z,2
2023-01-11T04:03:21.859Z,2.7
2023-01-11T04:09:16.595Z,2.7
2023-01-11T04:15:06.023Z,3.1
2023-01-11T04:20:54.788Z,2.3
2023-01-11T04:26:46.252Z,3.5
2023-01-11T04:32:37.467Z,2.4
2023-01-11T04:38:29.323Z,2.1
2023-01-11T04:44:20.182Z,2.8
2023-01-11T04:50:12.610Z,6.1
2023-01-11T04:56:03.796Z,1.7
2023-01-11T05:01:55.194Z,1.3
2023-01-11T05:07:47.873Z,2.6
2023-01-11T05:13:39.215Z,3.2
2023-01-11T05:19:30.156Z,1.7
2023-01-11T05:25:23.104Z,1.5
2023-01-11T05:31:14.003Z,1.3
2023-01-11T05:37:06.767Z,1.2
2023-01-11T05:42:57.422Z,1.5
2023-01-11T05:48:48.208Z,1.8
2023-01-11T05:54:38.903Z,1.8
2023-01-11T06:00:30.734Z,1.6
2023-01-11T06:06:21.693Z,2.9
2023-01-11T06:12:12.603Z,3.3
2023-01-11T06:18:03.237Z,1.2
2023-01-11T06:23:54.140Z,3.4
2023-01-11T06:29:45.061Z,2.4
2023-01-11T06:35:36.854Z,2.4
2023-01-11T06:41:28.896Z,1.8
2023-01-11T06:47:19.857Z,1.8
2023-01-11T06:53:13.079Z,2.4
2023-01-11T06:59:04.389Z,1.7
2023-01-11T07:04:55.854Z,1.4
2023-01-11T07:10:47.037Z,1
2023-01-11T07:16:39.350Z,0.6
2023-01-11T07:25:57.861Z,0.6
2023-01-11T07:31:47.301Z,0.2
2023-01-11T07:38:49.292Z,0.7
2023-01-11T07:46:59.160Z,0.6
2023-01-11T07:52:48.650Z,0.3
2023-01-11T08:02:09.509Z,2.1
2023-01-11T08:07:59.078Z,2.2
2023-01-11T08:13:48.820Z,3.9
2023-01-11T08:19:38.129Z,1.6
2023-01-11T08:25:29.502Z,1.8
2023-01-11T08:31:23.077Z,1.3
2023-01-11T08:37:17.422Z,2.7
2023-01-11T08:43:09.301Z,1.6
2023-01-11T08:49:01.306Z,2.2
2023-01-11T08:54:58.189Z,12.6
2023-01-11T09:00:50.505Z,7
2023-01-11T09:06:41.664Z,5.6
2023-01-11T09:12:33.318Z,4.4
2023-01-11T09:19:35.209Z,3.9
2023-01-11T09:25:25.295Z,5.3
2023-01-11T09:31:17.856Z,3.4
2023-01-11T09:37:09.902Z,3.1
2023-01-11T09:43:01.565Z,1.9
2023-01-11T09:48:52.860Z,1.4
2023-01-11T09:54:44.349Z,2.9
2023-01-11T10:00:36.439Z,5.9
2023-01-11T10:06:28.397Z,5.7
2023-01-11T10:18:45.320Z,5.9
2023-01-11T10:25:11.800Z,7.7
2023-01-11T10:31:04.155Z,7.1
2023-01-11T10:36:56.815Z,46.1
2023-01-11T10:42:49.031Z,10.6
2023-01-11T10:48:38.977Z,7.3
2023-01-11T10:54:30.363Z,7.5
2023-01-11T11:00:22.547Z,11.9
2023-01-11T11:06:17.249Z,13.9
2023-01-11T11:12:08.083Z,12.5
2023-01-11T11:17:59.086Z,10.2
2023-01-11T11:23:51.237Z,22.7
2023-01-11T11:29:42.262Z,20.1
2023-01-11T11:35:34.815Z,19.1
2023-01-11T11:41:26.581Z,18.8
2023-01-11T11:47:19.253Z,22.4
2023-01-11T11:53:10.396Z,23.9
2023-01-11T11:59:01.851Z,17.9
2023-01-11T12:04:53.418Z,13.4
2023-01-11T12:10:44.486Z,21.3
2023-01-11T12:16:34.929Z,16.8
2023-01-11T12:22:25.614Z,17.1
2023-01-11T12:28:16.196Z,18.5
2023-01-11T12:34:06.774Z,16.4
2023-01-11T12:39:57.860Z,13
2023-01-11T12:45:48.843Z,14
2023-01-11T12:51:40.858Z,16.2
2023-01-11T12:57:32.821Z,14.8
2023-01-11T13:03:24.561Z,17.2
2023-01-11T13:09:16.939Z,17.3
2023-01-11T13:15:07.472Z,10.1
2023-01-11T13:21:12.678Z,18.6
2023-01-11T13:27:04.569Z,15.3
2023-01-11T13:33:03.012Z,13.3
2023-01-11T13:38:55.021Z,17.9
2023-01-11T13:44:47.471Z,16.3
2023-01-11T13:50:39.004Z,15.6
2023-01-11T13:56:32.498Z,13.9
2023-01-11T14:02:32.370Z,12.2
2023-01-11T14:08:28.175Z,15.6
2023-01-11T14:20:53.153Z,16
2023-01-11T14:26:59.037Z,15.8
2023-01-11T14:33:21.183Z,19.4
2023-01-11T14:39:11.618Z,18.3
2023-01-11T14:45:16.355Z,15.9
2023-01-11T14:51:35.234Z,14.5
2023-01-11T14:57:38.086Z,20.5
2023-01-11T15:03:48.101Z,17.8
2023-01-11T15:09:59.296Z,17.9
2023-01-11T15:15:55.974Z,20.8
2023-01-11T15:21:46.482Z,21.6
2023-01-11T15:27:38.098Z,26.5
2023-01-11T15:33:29.328Z,26.2
2023-01-11T15:39:20.439Z,23.4
2023-01-11T15:45:11.411Z,24.2
2023-01-11T15:51:02.458Z,18.8
2023-01-11T15:56:53.999Z,17.1
2023-01-11T16:02:45.727Z,20.3
2023-01-11T16:08:36.540Z,23.6
2023-01-11T16:14:27.460Z,20.5
2023-01-11T16:20:18.116Z,21.9
2023-01-11T16:26:10.792Z,20.5
2023-01-11T16:32:01.944Z,18.8
2023-01-11T16:37:52.449Z,16.5
2023-01-11T16:43:44.752Z,17.4
2023-01-11T16:49:36.933Z,20.1
2023-01-11T16:55:28.325Z,23.4
2023-01-11T17:01:19.281Z,20
2023-01-11T17:07:10.265Z,17.9
2023-01-11T17:13:01.791Z,25
2023-01-11T17:18:52.943Z,31.4
2023-01-11T17:24:44.520Z,38.2
2023-01-11T17:30:35.456Z,26
2023-01-11T17:36:26.725Z,31.2
2023-01-11T17:42:18.501Z,24.6
2023-01-11T17:48:10.271Z,18.8
2023-01-11T17:54:01.105Z,20.3
2023-01-11T17:59:56.206Z,20.2
2023-01-11T18:05:47.589Z,19.6
2023-01-11T18:11:37.686Z,20.3
2023-01-11T18:17:27.949Z,17.3
2023-01-11T18:23:18.811Z,17.6
2023-01-11T18:29:07.260Z,15.2
2023-01-11T18:34:58.281Z,17.5
2023-01-11T18:40:49.222Z,13.5
2023-01-11T18:46:40.395Z,15.2
2023-01-11T18:52:33.575Z,14.4
2023-01-11T18:58:26.367Z,13.5
2023-01-11T19:04:17.265Z,17.6
2023-01-11T19:10:07.985Z,13.7
2023-01-11T19:15:58.331Z,18.8
2023-01-11T19:21:48.785Z,17.8
2023-01-11T19:27:39.554Z,18.8
2023-01-11T19:33:29.655Z,18.4
2023-01-11T19:39:22.647Z,16.7
2023-01-11T19:45:15.187Z,15.9
2023-01-11T19:51:06.441Z,21.2
2023-01-11T19:56:57.205Z,17.2
2023-01-11T20:02:49.600Z,18.3
2023-01-11T20:08:40.045Z,17.1
2023-01-11T20:14:30.580Z,15
2023-01-11T20:20:22.067Z,14.3
2023-01-11T20:26:13.763Z,17
2023-01-11T20:32:44.215Z,14
2023-01-11T20:38:31.748Z,15.9
2023-01-11T20:44:22.670Z,16.3
2023-01-11T20:50:13.898Z,18.5
2023-01-11T20:56:04.774Z,14.9
2023-01-11T21:01:55.745Z,13.5
2023-01-11T21:07:47.920Z,17.4
2023-01-11T21:13:39.148Z,17.5
2023-01-11T21:40:27.405Z,16.8
2023-01-11T21:53:03.990Z,18.4
2023-01-11T21:59:24.768Z,16.3
2023-01-11T22:05:34.234Z,15.5
2023-01-11T22:11:27.303Z,19.4
2023-01-11T22:17:33.720Z,19.4
2023-01-11T22:23:55.402Z,19.2
2023-01-11T22:30:00.886Z,14.7
2023-01-11T22:36:18.321Z,19.8
2023-01-11T22:42:32.005Z,18.3
2023-01-11T22:48:48.449Z,13.4
2023-01-11T22:55:09.437Z,14.4
2023-01-11T23:08:13.748Z,11.8
2023-01-11T23:14:36.351Z,15.7
2023-01-11T23:28:02.019Z,13.9
2023-01-11T23:34:25.232Z,17.5
2023-01-11T23:41:02.525Z,15.3
